Arnott, Wisconsin
Current Conditions -  °F | °C
As of 4:35 PM on Friday 28 Nov 2014 (Local Time) from KSTE Reporting Station
Overcast Overcast  
Wind Chill:   Ceiling: 1900
Heat Index: 18°   Visibility: 10mi
Dew Point: 14°   Wind: 6mph
Humidity: 87%   Direction: 100°E
Pressure: 29.91"   Gusts: NA
Location:  44.5531°N, 89.5186°W
Report Text: KSTE 282235Z AUTO 10005KT 10SM BKN019 OVC070 M08/M10 A2991 RMK AO2 T10801098
Loading
Personal Weather Stations






























Interactive Weather Map New forecast layout! Learn more

10-Day Weather Forecast

Advertisements
Track Severe Weather on mobile